createdAt,value
2023-02-06T00:01:32.025Z,18.25
2023-02-06T00:03:58.725Z,18.42
2023-02-06T00:06:25.336Z,17.83
2023-02-06T00:08:51.972Z,19.70
2023-02-06T00:11:18.934Z,20.13
2023-02-06T00:13:45.731Z,19.60
2023-02-06T00:16:23.870Z,20.95
2023-02-06T00:18:51.288Z,17.73
2023-02-06T00:21:22.157Z,17.65
2023-02-06T00:23:49.386Z,18.20
2023-02-06T00:26:16.132Z,17.73
2023-02-06T00:28:43.421Z,18.42
2023-02-06T00:31:10.673Z,17.65
2023-02-06T00:33:38.850Z,17.52
2023-02-06T00:36:06.213Z,16.98
2023-02-06T00:38:33.031Z,18.58
2023-02-06T00:40:59.792Z,18.70
2023-02-06T00:43:26.385Z,18.00
2023-02-06T00:45:54.104Z,17.92
2023-02-06T00:48:22.410Z,17.38
2023-02-06T00:50:50.181Z,17.95
2023-02-06T00:53:16.940Z,17.90
2023-02-06T00:55:43.898Z,16.65
2023-02-06T00:58:10.998Z,16.58
2023-02-06T01:00:37.778Z,15.65
2023-02-06T01:03:04.489Z,15.55
2023-02-06T01:05:31.170Z,15.48
2023-02-06T01:07:57.799Z,15.82
2023-02-06T01:10:25.174Z,16.77
2023-02-06T01:12:51.881Z,16.85
2023-02-06T01:15:18.577Z,17.30
2023-02-06T01:17:45.239Z,16.45
2023-02-06T01:20:15.158Z,16.58
2023-02-06T01:22:41.953Z,16.63
2023-02-06T01:25:11.714Z,16.67
2023-02-06T01:27:39.138Z,15.27
2023-02-06T01:30:07.511Z,15.68
2023-02-06T01:32:38.481Z,15.02
2023-02-06T01:35:06.978Z,15.90
2023-02-06T01:37:34.523Z,15.85
2023-02-06T01:40:01.203Z,15.93
2023-02-06T01:42:27.870Z,15.38
2023-02-06T01:45:39.849Z,15.55
2023-02-06T01:48:10.450Z,15.40
2023-02-06T01:50:39.898Z,15.25
2023-02-06T01:53:09.411Z,15.98
2023-02-06T01:55:40.965Z,16.90
2023-02-06T01:58:09.749Z,16.50
2023-02-06T02:00:36.508Z,15.25
2023-02-06T02:03:04.154Z,15.43
2023-02-06T02:05:34.446Z,16.33
2023-02-06T02:08:07.042Z,16.17
2023-02-06T02:10:35.154Z,15.63
2023-02-06T02:13:02.054Z,15.10
2023-02-06T02:16:18.486Z,15.45
2023-02-06T02:19:03.607Z,15.85
2023-02-06T02:21:48.979Z,15.15
2023-02-06T02:24:44.639Z,14.07
2023-02-06T02:27:32.908Z,14.23
2023-02-06T02:30:14.707Z,13.15
2023-02-06T02:33:13.141Z,13.05
2023-02-06T02:36:15.448Z,13.27
2023-02-06T02:39:20.168Z,12.73
2023-02-06T02:42:13.959Z,12.05
2023-02-06T02:44:51.596Z,11.63
2023-02-06T02:47:21.884Z,12.23
2023-02-06T02:49:48.713Z,11.82
2023-02-06T02:52:15.489Z,11.10
2023-02-06T02:54:43.047Z,10.40
2023-02-06T02:57:14.420Z,10.18
2023-02-06T02:59:45.715Z,9.60
2023-02-06T03:02:22.634Z,9.57
2023-02-06T03:04:57.806Z,9.45
2023-02-06T03:07:26.288Z,8.57
2023-02-06T03:10:11.632Z,8.75
2023-02-06T03:12:46.090Z,7.97
2023-02-06T03:15:49.660Z,7.97
2023-02-06T03:18:20.310Z,8.02
2023-02-06T03:20:48.061Z,7.93
2023-02-06T03:23:24.303Z,7.32
2023-02-06T03:25:53.417Z,6.97
2023-02-06T03:28:48.153Z,7.43
2023-02-06T03:31:20.194Z,7.32
2023-02-06T03:33:54.838Z,7.07
2023-02-06T03:36:21.698Z,6.90
2023-02-06T03:38:49.919Z,7.00
2023-02-06T03:41:17.981Z,6.68
2023-02-06T03:43:47.453Z,6.82
2023-02-06T03:46:15.926Z,6.75
2023-02-06T03:48:46.074Z,6.70
2023-02-06T03:51:18.457Z,6.05
2023-02-06T03:53:46.624Z,6.50
2023-02-06T03:56:17.622Z,6.35
2023-02-06T03:58:44.668Z,6.38
2023-02-06T04:01:12.189Z,5.78
2023-02-06T04:03:39.088Z,5.85
2023-02-06T04:06:05.765Z,5.78
2023-02-06T04:08:32.416Z,5.40
2023-02-06T04:10:59.072Z,5.80
2023-02-06T04:13:25.700Z,5.50
2023-02-06T04:15:52.421Z,5.57
2023-02-06T04:18:19.036Z,5.20
2023-02-06T04:20:45.639Z,5.68
2023-02-06T04:23:12.339Z,5.60
2023-02-06T04:25:39.194Z,6.25
2023-02-06T04:28:06.018Z,5.63
2023-02-06T04:30:32.796Z,6.35
2023-02-06T04:32:59.416Z,5.60
2023-02-06T04:35:26.053Z,5.45
2023-02-06T04:37:52.806Z,6.05
2023-02-06T04:40:19.457Z,5.78
2023-02-06T04:42:46.336Z,5.82
2023-02-06T04:45:13.353Z,6.22
2023-02-06T04:47:40.017Z,6.22
2023-02-06T04:50:07.095Z,5.70
2023-02-06T04:52:33.755Z,5.93
2023-02-06T04:55:00.435Z,6.80
2023-02-06T04:57:27.174Z,6.00
2023-02-06T04:59:53.884Z,6.10
2023-02-06T05:02:20.719Z,6.20
2023-02-06T05:04:47.388Z,5.78
2023-02-06T05:07:14.253Z,6.20
2023-02-06T05:09:40.909Z,6.30
2023-02-06T05:12:07.855Z,6.07
2023-02-06T05:14:34.701Z,6.18
2023-02-06T05:17:01.336Z,6.20
2023-02-06T05:19:31.025Z,6.72
2023-02-06T05:21:57.671Z,6.25
2023-02-06T05:24:24.549Z,6.47
2023-02-06T05:26:57.967Z,6.82
2023-02-06T05:29:25.777Z,6.65
2023-02-06T05:31:52.638Z,5.97
2023-02-06T05:34:19.419Z,6.35
2023-02-06T05:36:46.030Z,6.78
2023-02-06T05:39:12.699Z,6.80
2023-02-06T05:41:39.336Z,6.72
2023-02-06T05:44:06.049Z,6.53
2023-02-06T05:46:33.068Z,6.28
2023-02-06T05:48:59.755Z,7.32
2023-02-06T05:51:26.599Z,7.10
2023-02-06T05:53:53.220Z,6.90
2023-02-06T05:56:19.893Z,6.78
2023-02-06T05:58:46.605Z,7.53
2023-02-06T06:01:13.400Z,6.82
2023-02-06T06:03:40.345Z,7.05
2023-02-06T06:06:07.389Z,7.32
2023-02-06T06:08:34.166Z,7.63
2023-02-06T06:11:02.829Z,7.55
2023-02-06T06:13:29.594Z,7.45
2023-02-06T06:15:56.270Z,8.52
2023-02-06T06:18:22.946Z,7.50
2023-02-06T06:20:52.387Z,7.53
2023-02-06T06:23:19.073Z,7.40
2023-02-06T06:25:46.992Z,7.50
2023-02-06T06:28:13.857Z,7.95
2023-02-06T06:30:40.600Z,7.82
2023-02-06T06:33:07.281Z,8.35
2023-02-06T06:35:34.368Z,8.70
2023-02-06T06:38:01.077Z,8.10
2023-02-06T06:40:27.900Z,8.02
2023-02-06T06:42:54.503Z,8.43
2023-02-06T06:45:21.202Z,8.65
2023-02-06T06:47:47.887Z,8.88
2023-02-06T06:50:14.703Z,8.63
2023-02-06T06:52:41.367Z,9.20
2023-02-06T06:55:08.180Z,9.05
2023-02-06T06:57:34.811Z,9.10
2023-02-06T07:00:01.471Z,9.52
2023-02-06T07:02:28.770Z,8.90
2023-02-06T07:04:55.858Z,8.88
2023-02-06T07:07:22.808Z,9.40
2023-02-06T07:09:49.605Z,9.65
2023-02-06T07:12:16.403Z,10.55
2023-02-06T07:14:43.172Z,9.77
2023-02-06T07:17:09.782Z,9.75
2023-02-06T07:19:36.500Z,10.32
2023-02-06T07:22:03.224Z,9.65
2023-02-06T07:24:29.892Z,9.57
2023-02-06T07:26:58.629Z,9.30
2023-02-06T07:29:25.263Z,9.70
2023-02-06T07:31:51.983Z,10.02
2023-02-06T07:34:18.604Z,9.77
2023-02-06T07:36:45.224Z,9.43
2023-02-06T07:39:11.971Z,10.00
2023-02-06T07:41:38.742Z,9.55
2023-02-06T07:44:05.360Z,9.00
2023-02-06T07:46:33.048Z,9.20
2023-02-06T07:48:59.681Z,10.32
2023-02-06T07:51:26.653Z,9.48
2023-02-06T07:53:56.415Z,10.30
2023-02-06T07:56:25.869Z,9.77
2023-02-06T07:58:54.100Z,10.35
2023-02-06T08:01:24.272Z,10.57
2023-02-06T08:03:52.109Z,9.35
2023-02-06T08:06:19.581Z,10.15
2023-02-06T08:08:47.228Z,9.77
2023-02-06T08:11:16.874Z,10.32
2023-02-06T08:13:43.934Z,10.23
2023-02-06T08:16:17.017Z,10.48
2023-02-06T08:18:43.853Z,10.18
2023-02-06T08:21:13.097Z,11.07
2023-02-06T08:23:40.057Z,11.35
2023-02-06T08:26:12.851Z,11.10
2023-02-06T08:28:42.275Z,10.95
2023-02-06T08:31:15.346Z,11.20
2023-02-06T08:33:43.554Z,10.15
2023-02-06T08:36:11.074Z,10.77
2023-02-06T08:38:37.858Z,10.63
2023-02-06T08:41:05.633Z,10.70
2023-02-06T08:43:33.154Z,11.00
2023-02-06T08:46:00.040Z,10.40
2023-02-06T08:48:27.051Z,10.77
2023-02-06T08:51:08.184Z,10.55
2023-02-06T08:53:35.316Z,11.55
2023-02-06T08:56:04.497Z,11.18
2023-02-06T08:58:31.488Z,11.52
2023-02-06T09:01:00.152Z,11.68
2023-02-06T09:03:27.314Z,12.13
2023-02-06T09:06:09.367Z,12.07
2023-02-06T09:08:37.071Z,12.10
2023-02-06T09:11:17.263Z,12.82
2023-02-06T09:13:49.222Z,11.48
2023-02-06T09:16:18.325Z,11.45
2023-02-06T09:18:45.813Z,12.07
2023-02-06T09:21:19.011Z,11.65
2023-02-06T09:23:48.227Z,12.93
2023-02-06T09:26:17.555Z,12.88
2023-02-06T09:28:44.450Z,13.05
2023-02-06T09:31:11.572Z,13.10
2023-02-06T09:33:39.452Z,12.18
2023-02-06T09:36:08.511Z,12.85
2023-02-06T09:38:35.882Z,12.50
2023-02-06T09:41:04.156Z,13.77
2023-02-06T09:43:32.136Z,13.40
2023-02-06T09:46:03.909Z,12.30
2023-02-06T09:48:33.789Z,12.85
2023-02-06T09:51:19.379Z,12.73
2023-02-06T09:54:05.608Z,13.95
2023-02-06T09:56:40.205Z,12.80
2023-02-06T09:59:35.993Z,13.38
2023-02-06T10:02:26.334Z,13.18
2023-02-06T10:05:12.591Z,12.07
2023-02-06T10:07:48.149Z,13.15
2023-02-06T10:10:21.400Z,12.90
2023-02-06T10:12:57.565Z,13.35
2023-02-06T10:15:35.986Z,12.35
2023-02-06T10:18:11.842Z,12.27
2023-02-06T10:20:43.367Z,12.15
2023-02-06T10:23:18.870Z,13.20
2023-02-06T10:25:54.318Z,11.25
2023-02-06T10:28:29.050Z,11.55
2023-02-06T10:31:14.211Z,12.63
2023-02-06T10:33:44.025Z,12.32
2023-02-06T10:37:01.772Z,11.52
2023-02-06T10:39:49.535Z,10.98
2023-02-06T10:42:39.616Z,12.23
2023-02-06T10:45:31.130Z,11.15
2023-02-06T10:48:19.433Z,11.88
2023-02-06T10:51:15.192Z,11.52
2023-02-06T10:54:06.474Z,11.32
2023-02-06T10:56:40.603Z,12.35
2023-02-06T10:59:30.723Z,11.70
2023-02-06T11:02:09.440Z,11.75
2023-02-06T11:04:39.660Z,11.00
2023-02-06T11:07:15.211Z,11.75
2023-02-06T11:09:41.903Z,10.82
2023-02-06T11:12:23.040Z,11.50
2023-02-06T11:14:55.196Z,11.52
2023-02-06T11:17:23.415Z,12.55
2023-02-06T11:19:51.848Z,12.70
2023-02-06T11:22:28.240Z,12.13
2023-02-06T11:25:02.665Z,11.43
2023-02-06T11:27:30.199Z,11.63
2023-02-06T11:30:02.294Z,11.40
2023-02-06T11:32:36.233Z,12.02
2023-02-06T11:35:30.848Z,11.80
2023-02-06T11:38:17.938Z,12.55
2023-02-06T11:40:55.655Z,11.23
2023-02-06T11:43:27.559Z,11.02
2023-02-06T11:46:24.506Z,11.95
2023-02-06T11:48:58.647Z,11.85
2023-02-06T11:51:26.453Z,11.75
2023-02-06T11:54:00.004Z,12.80
2023-02-06T11:56:27.786Z,12.23
2023-02-06T11:59:06.847Z,12.85
2023-02-06T12:01:45.091Z,12.45
2023-02-06T12:04:23.961Z,13.05
2023-02-06T12:07:14.937Z,12.05
2023-02-06T12:09:41.783Z,12.40
2023-02-06T12:12:28.581Z,14.00
2023-02-06T12:15:36.270Z,12.95
2023-02-06T12:18:02.048Z,12.75
2023-02-06T12:20:31.963Z,13.85
2023-02-06T12:23:07.456Z,13.68
2023-02-06T12:25:37.164Z,14.55
2023-02-06T12:28:27.408Z,14.18
2023-02-06T12:30:59.708Z,13.82
2023-02-06T12:33:36.266Z,13.63
2023-02-06T12:36:20.950Z,13.75
2023-02-06T12:38:57.405Z,13.27
2023-02-06T12:41:48.460Z,15.75
2023-02-06T12:44:47.019Z,14.93
2023-02-06T12:47:25.316Z,15.07
2023-02-06T12:50:00.951Z,15.13
2023-02-06T12:52:57.473Z,15.35
2023-02-06T12:55:31.976Z,14.55
2023-02-06T12:57:58.854Z,14.80
2023-02-06T13:00:45.830Z,15.57
2023-02-06T13:03:44.221Z,15.52
2023-02-06T13:06:15.433Z,15.05
2023-02-06T13:08:46.792Z,14.52
2023-02-06T13:11:24.393Z,14.98
2023-02-06T13:14:00.626Z,15.10
2023-02-06T13:16:38.934Z,15.13
2023-02-06T13:19:05.797Z,15.40
2023-02-06T13:21:34.065Z,15.35
2023-02-06T13:24:03.680Z,15.75
2023-02-06T13:26:46.336Z,14.57
2023-02-06T13:29:22.967Z,14.43
2023-02-06T13:31:49.687Z,16.00
2023-02-06T13:34:17.765Z,15.95
2023-02-06T13:36:50.195Z,16.02
2023-02-06T13:39:29.799Z,14.27
2023-02-06T13:41:56.967Z,15.30
2023-02-06T13:44:31.550Z,14.40
2023-02-06T13:47:10.435Z,13.77
2023-02-06T13:50:02.665Z,13.60
2023-02-06T13:52:54.502Z,14.02
2023-02-06T13:55:45.645Z,15.10
2023-02-06T13:58:37.168Z,15.93
2023-02-06T14:01:07.779Z,14.98
2023-02-06T14:03:34.924Z,15.75
2023-02-06T14:06:08.075Z,16.65
2023-02-06T14:09:08.889Z,14.30
2023-02-06T14:12:19.124Z,15.95
2023-02-06T14:14:51.553Z,15.38
2023-02-06T14:17:41.411Z,15.68
2023-02-06T14:20:23.663Z,15.10
2023-02-06T14:23:24.001Z,16.30
2023-02-06T14:26:13.725Z,16.77
2023-02-06T14:28:51.209Z,17.80
2023-02-06T14:31:49.254Z,16.38
2023-02-06T14:34:58.014Z,16.00
2023-02-06T14:37:43.393Z,17.42
2023-02-06T14:40:24.905Z,17.25
2023-02-06T14:42:56.168Z,17.48
2023-02-06T14:45:31.917Z,16.65
2023-02-06T14:48:04.295Z,17.30
2023-02-06T14:50:33.808Z,16.45
2023-02-06T14:53:32.813Z,16.20
2023-02-06T14:56:14.962Z,16.90
2023-02-06T14:58:46.325Z,16.88
2023-02-06T15:01:19.165Z,17.20
2023-02-06T15:03:47.639Z,16.42
2023-02-06T15:06:35.413Z,15.35
2023-02-06T15:09:02.065Z,16.20
2023-02-06T15:11:32.988Z,17.10
2023-02-06T15:14:05.404Z,17.27
2023-02-06T15:16:45.803Z,16.30
2023-02-06T15:19:18.354Z,16.17
2023-02-06T15:21:45.156Z,17.50
2023-02-06T15:24:41.027Z,16.45
2023-02-06T15:27:19.982Z,15.90
2023-02-06T15:29:49.818Z,16.33
2023-02-06T15:32:38.042Z,15.48
2023-02-06T15:35:20.657Z,15.50
2023-02-06T15:37:47.521Z,16.60
2023-02-06T15:40:22.943Z,15.70
2023-02-06T15:42:50.385Z,15.57
2023-02-06T15:45:25.595Z,15.38
2023-02-06T15:47:53.888Z,14.68
2023-02-06T15:50:27.387Z,15.35
2023-02-06T15:52:55.212Z,14.15
2023-02-06T15:55:25.900Z,13.77
2023-02-06T15:57:53.157Z,14.10
2023-02-06T16:00:26.521Z,13.50
2023-02-06T16:02:58.075Z,13.02
2023-02-06T16:05:33.752Z,12.60
2023-02-06T16:08:02.757Z,13.38
2023-02-06T16:10:33.248Z,13.05
2023-02-06T16:13:01.793Z,13.02
2023-02-06T16:15:34.308Z,14.10
2023-02-06T16:18:25.782Z,13.82
2023-02-06T16:20:52.725Z,12.85
2023-02-06T16:23:28.773Z,13.35
2023-02-06T16:26:17.214Z,13.68
2023-02-06T16:29:05.863Z,13.30
2023-02-06T16:31:35.389Z,14.30
2023-02-06T16:34:05.216Z,14.15
2023-02-06T16:36:33.345Z,16.10
2023-02-06T16:39:03.989Z,16.92
2023-02-06T16:41:37.264Z,17.00
2023-02-06T16:44:07.572Z,16.85
2023-02-06T16:46:34.327Z,17.45
2023-02-06T16:49:01.083Z,15.45
2023-02-06T16:51:29.939Z,13.77
2023-02-06T16:53:58.098Z,14.13
2023-02-06T16:56:24.834Z,13.68
2023-02-06T16:58:51.625Z,13.77
2023-02-06T17:01:26.761Z,13.15
2023-02-06T17:03:53.850Z,13.90
2023-02-06T17:06:30.442Z,14.00
2023-02-06T17:09:02.143Z,13.40
2023-02-06T17:11:29.621Z,13.70
2023-02-06T17:13:56.620Z,13.02
2023-02-06T17:16:24.840Z,13.80
2023-02-06T17:18:52.300Z,12.93
2023-02-06T17:21:22.401Z,14.15
2023-02-06T17:23:50.319Z,14.65
2023-02-06T17:26:20.541Z,14.02
2023-02-06T17:28:48.091Z,15.45
2023-02-06T17:31:15.255Z,15.35
2023-02-06T17:33:42.009Z,14.60
2023-02-06T17:36:19.334Z,13.23
2023-02-06T17:38:46.038Z,14.05
2023-02-06T17:41:12.772Z,13.38
2023-02-06T17:43:39.440Z,14.15
2023-02-06T17:46:06.674Z,14.88
2023-02-06T17:48:36.671Z,13.77
2023-02-06T17:51:05.365Z,14.27
2023-02-06T17:53:32.318Z,13.95
2023-02-06T17:56:04.573Z,15.18
2023-02-06T17:58:31.438Z,14.40
2023-02-06T18:00:58.123Z,13.43
2023-02-06T18:03:24.925Z,13.70
2023-02-06T18:05:59.442Z,13.68
2023-02-06T18:08:27.188Z,14.57
2023-02-06T18:10:53.831Z,15.20
2023-02-06T18:13:21.591Z,14.90
2023-02-06T18:15:50.341Z,14.43
2023-02-06T18:18:17.058Z,13.98
2023-02-06T18:20:44.165Z,13.07
2023-02-06T18:23:11.265Z,12.05
2023-02-06T18:25:44.541Z,12.93
2023-02-06T18:28:14.141Z,13.88
2023-02-06T18:30:41.973Z,14.35
2023-02-06T18:33:09.222Z,13.13
2023-02-06T18:35:40.576Z,13.40
2023-02-06T18:38:10.091Z,12.85
2023-02-06T18:40:41.440Z,13.15
2023-02-06T18:43:08.548Z,13.52
2023-02-06T18:45:37.690Z,12.88
2023-02-06T18:48:06.074Z,13.93
2023-02-06T18:50:38.653Z,13.82
2023-02-06T18:53:05.474Z,14.15
2023-02-06T18:55:35.041Z,13.27
2023-02-06T18:58:02.334Z,13.52
2023-02-06T19:00:29.078Z,13.00
2023-02-06T19:02:58.142Z,13.95
2023-02-06T19:05:24.992Z,13.15
2023-02-06T19:07:53.508Z,14.05
2023-02-06T19:10:21.352Z,14.30
2023-02-06T19:12:48.016Z,14.00
2023-02-06T19:15:15.349Z,14.13
2023-02-06T19:17:42.086Z,15.20
2023-02-06T19:20:10.267Z,15.70
2023-02-06T19:22:38.051Z,15.10
2023-02-06T19:25:10.058Z,15.98
2023-02-06T19:27:38.692Z,17.20
2023-02-06T19:30:07.924Z,17.17
2023-02-06T19:32:35.117Z,16.80
2023-02-06T19:35:02.560Z,17.02
2023-02-06T19:37:29.256Z,18.40
2023-02-06T19:39:56.014Z,18.67
2023-02-06T19:42:22.823Z,20.23
2023-02-06T19:44:54.911Z,19.80
2023-02-06T19:47:21.849Z,22.08
2023-02-06T19:49:52.717Z,18.48
2023-02-06T19:52:20.192Z,17.55
2023-02-06T19:54:47.973Z,16.70
2023-02-06T19:57:16.116Z,17.27
2023-02-06T19:59:42.907Z,16.08
2023-02-06T20:02:10.552Z,16.98
2023-02-06T20:04:37.928Z,17.33
2023-02-06T20:07:04.681Z,16.48
2023-02-06T20:09:31.824Z,16.40
2023-02-06T20:11:58.719Z,17.25
2023-02-06T20:14:26.900Z,15.77
2023-02-06T20:16:53.851Z,14.55
2023-02-06T20:19:27.113Z,15.70
2023-02-06T20:21:57.654Z,14.05
2023-02-06T20:24:27.056Z,13.55
2023-02-06T20:26:56.453Z,15.27
2023-02-06T20:29:24.489Z,14.50
2023-02-06T20:31:51.668Z,15.32
2023-02-06T20:34:19.105Z,15.38
2023-02-06T20:36:46.471Z,16.60
2023-02-06T20:39:13.707Z,15.68
2023-02-06T20:41:41.263Z,15.93
2023-02-06T20:44:09.690Z,15.68
2023-02-06T20:46:36.849Z,15.63
2023-02-06T20:49:06.092Z,16.08
2023-02-06T20:51:32.724Z,16.27
2023-02-06T20:54:01.951Z,15.70
2023-02-06T20:56:28.747Z,15.10
2023-02-06T20:58:56.533Z,16.13
2023-02-06T21:01:25.979Z,16.70
2023-02-06T21:03:55.832Z,17.50
2023-02-06T21:06:22.774Z,18.95
2023-02-06T21:08:50.417Z,18.52
2023-02-06T21:11:17.647Z,20.95
2023-02-06T21:13:44.437Z,22.17
2023-02-06T21:16:13.538Z,19.90
2023-02-06T21:18:42.781Z,19.30
2023-02-06T21:21:12.483Z,18.65
2023-02-06T21:23:40.856Z,17.48
2023-02-06T21:26:12.429Z,16.33
2023-02-06T21:28:39.622Z,17.05
2023-02-06T21:31:09.353Z,17.38
2023-02-06T21:33:36.613Z,18.60
2023-02-06T21:36:04.122Z,18.95
2023-02-06T21:38:30.801Z,18.80
2023-02-06T21:41:03.919Z,17.80
2023-02-06T21:43:30.775Z,17.15
2023-02-06T21:45:58.053Z,17.73
2023-02-06T21:48:24.759Z,17.25
2023-02-06T21:50:51.548Z,17.10
2023-02-06T21:53:18.305Z,17.55
2023-02-06T21:55:45.322Z,17.58
2023-02-06T21:58:15.932Z,18.30
2023-02-06T22:00:44.611Z,17.98
2023-02-06T22:03:12.232Z,17.13
2023-02-06T22:05:39.335Z,18.17
2023-02-06T22:08:06.350Z,18.83
2023-02-06T22:10:35.689Z,18.70
2023-02-06T22:13:04.730Z,19.75
2023-02-06T22:15:31.649Z,17.70
2023-02-06T22:17:58.391Z,16.15
2023-02-06T22:20:25.213Z,14.93
2023-02-06T22:22:53.730Z,13.75
2023-02-06T22:25:20.484Z,13.85
2023-02-06T22:27:47.231Z,13.88
2023-02-06T22:30:14.278Z,14.15
2023-02-06T22:32:40.868Z,13.15
2023-02-06T22:35:07.890Z,13.40
2023-02-06T22:37:34.678Z,14.18
2023-02-06T22:40:01.363Z,14.07
2023-02-06T22:42:27.990Z,13.45
2023-02-06T22:44:54.630Z,14.00
2023-02-06T22:47:21.322Z,13.95
2023-02-06T22:49:50.906Z,14.55
2023-02-06T22:52:36.501Z,14.63
2023-02-06T22:55:04.646Z,14.70
2023-02-06T22:57:33.562Z,15.05
2023-02-06T23:00:00.343Z,14.63
2023-02-06T23:02:30.126Z,14.88
2023-02-06T23:04:57.039Z,14.75
2023-02-06T23:07:23.706Z,15.70
2023-02-06T23:09:50.527Z,15.35
2023-02-06T23:12:17.156Z,15.70
2023-02-06T23:14:43.795Z,16.35
2023-02-06T23:17:10.913Z,15.40
2023-02-06T23:19:40.604Z,16.30
2023-02-06T23:22:08.084Z,15.93
2023-02-06T23:24:34.739Z,15.70
2023-02-06T23:27:01.721Z,15.93
2023-02-06T23:29:28.754Z,15.40
2023-02-06T23:31:55.794Z,14.55
2023-02-06T23:34:24.319Z,16.58
2023-02-06T23:36:52.043Z,16.02
2023-02-06T23:39:22.116Z,15.90
2023-02-06T23:41:48.763Z,16.10
2023-02-06T23:44:15.406Z,17.45
2023-02-06T23:46:42.105Z,16.48
2023-02-06T23:49:09.073Z,16.27
2023-02-06T23:51:38.000Z,16.58
2023-02-06T23:54:05.809Z,16.55
2023-02-06T23:56:33.095Z,16.08
2023-02-06T23:59:04.043Z,16.30
